Time;durP1;ratioP1;P1;durP2;ratioP2;P2;SDS_P1;SDS_P2;PMS_P1;PMS_P2;Temp;Humidity;BMP_temperature;BMP_pressure;BME280_temperature;BME280_humidity;BME280_pressure;Samples;Min_cycle;Max_cycle;Signal;HPM_P1;HPM_P2
2022/01/08 00:00:48;;;;;;;6.25;4.22;;;;;;;2.76;79.39;97890.78;4111376;28;20210;-53
2022/01/08 00:02:51;;;;;;;5.72;4.95;;;;;;;2.78;79.83;97878.72;4109886;28;20218;-53
2022/01/08 00:04:53;;;;;;;6.70;4.50;;;;;;;2.77;79.87;97877.06;4112354;28;20242;-53
2022/01/08 00:06:56;;;;;;;4.75;4.13;;;;;;;2.76;79.69;97870.00;4112929;28;20209;-53
2022/01/08 00:08:57;;;;;;;11.77;4.15;;;;;;;2.74;79.42;97863.97;4090753;28;20250;-54
2022/01/08 00:10:59;;;;;;;7.85;4.88;;;;;;;2.89;79.45;97858.28;4094585;28;20250;-53
2022/01/08 00:13:04;;;;;;;6.03;5.63;;;;;;;2.78;80.23;97845.47;4126923;28;20252;-54
2022/01/08 00:15:07;;;;;;;8.32;4.93;;;;;;;2.70;80.20;97838.47;4110240;28;20214;-54
2022/01/08 00:17:08;;;;;;;6.35;4.03;;;;;;;2.69;80.26;97842.22;4112999;28;20233;-55
2022/01/08 00:19:10;;;;;;;4.13;3.72;;;;;;;2.68;80.33;97837.00;4125742;28;20238;-54
2022/01/08 00:21:13;;;;;;;4.85;4.15;;;;;;;2.67;80.67;97828.06;4127284;28;20209;-55
2022/01/08 00:23:15;;;;;;;5.47;4.13;;;;;;;2.71;80.07;97828.47;4111014;28;20206;-54
2022/01/08 00:25:16;;;;;;;5.65;3.55;;;;;;;2.65;80.16;97822.06;4088872;28;20212;-55
2022/01/08 00:27:19;;;;;;;3.70;3.40;;;;;;;2.72;79.91;97814.75;4112773;28;20214;-55
2022/01/08 00:29:21;;;;;;;3.92;3.50;;;;;;;2.70;79.96;97811.44;4130337;28;20284;-54
2022/01/08 00:31:23;;;;;;;3.22;2.88;;;;;;;2.68;80.39;97808.13;4114530;28;20214;-54
2022/01/08 00:33:25;;;;;;;4.30;2.83;;;;;;;2.77;79.67;97817.63;4115905;28;20350;-55
2022/01/08 00:35:28;;;;;;;3.30;2.75;;;;;;;2.73;79.80;97805.59;4130136;28;20324;-54
2022/01/08 00:37:29;;;;;;;4.10;3.22;;;;;;;2.63;79.81;97805.28;4114141;28;20235;-55
2022/01/08 00:39:32;;;;;;;3.13;2.92;;;;;;;2.61;80.17;97801.13;4111930;28;20227;-54
2022/01/08 00:41:33;;;;;;;3.55;3.25;;;;;;;2.58;80.06;97796.16;4127777;28;20217;-56
2022/01/08 00:43:36;;;;;;;4.63;2.17;;;;;;;2.51;79.84;97790.81;4129995;28;20300;-53
2022/01/08 00:45:37;;;;;;;2.38;2.17;;;;;;;2.45;79.99;97786.28;4128772;28;20727;-54
2022/01/08 00:47:39;;;;;;;4.57;2.28;;;;;;;2.41;80.12;97790.44;4111374;28;20215;-53
2022/01/08 00:49:41;;;;;;;4.68;3.40;;;;;;;2.41;80.08;97785.03;4129613;28;20687;-54
2022/01/08 00:51:43;;;;;;;2.88;2.67;;;;;;;2.44;80.55;97779.22;4113699;28;20744;-53
2022/01/08 00:53:44;;;;;;;2.60;2.40;;;;;;;2.39;80.07;97781.72;4112806;28;20708;-56
2022/01/08 00:55:46;;;;;;;3.40;3.20;;;;;;;2.31;80.17;97779.28;4129426;28;20268;-53
2022/01/08 00:57:48;;;;;;;3.25;3.05;;;;;;;2.31;80.08;97773.91;4128717;28;20233;-55
2022/01/08 00:59:50;;;;;;;4.35;2.88;;;;;;;2.30;80.05;97788.44;4114423;28;20754;-54
2022/01/08 01:01:51;;;;;;;2.83;2.63;;;;;;;2.14;80.15;97778.13;4114494;28;20215;-54
2022/01/08 01:03:53;;;;;;;2.58;2.40;;;;;;;2.20;79.70;97776.47;4114440;28;20234;-53
2022/01/08 01:05:55;;;;;;;2.40;2.30;;;;;;;2.05;79.32;97768.63;4129969;28;20273;-54
2022/01/08 01:07:57;;;;;;;2.78;2.58;;;;;;;1.95;80.31;97760.16;4114568;28;20607;-54
2022/01/08 01:09:59;;;;;;;3.28;3.08;;;;;;;1.82;80.43;97762.09;4130122;28;20233;-55
2022/01/08 01:12:01;;;;;;;3.05;2.75;;;;;;;1.81;80.32;97766.66;4114686;28;20751;-54
2022/01/08 01:14:03;;;;;;;2.30;2.13;;;;;;;1.75;80.42;97766.69;4098243;28;20282;-53
2022/01/08 01:16:05;;;;;;;2.90;2.70;;;;;;;1.80;80.52;97759.63;4128047;28;20206;-54
2022/01/08 01:18:08;;;;;;;2.30;2.20;;;;;;;1.78;80.20;97753.63;4130652;28;20226;-54
2022/01/08 01:20:12;;;;;;;3.92;2.13;;;;;;;1.74;80.12;97765.03;4111926;28;20740;-54
2022/01/08 01:22:18;;;;;;;2.53;2.33;;;;;;;1.87;80.57;97755.00;4113115;28;20207;-54
2022/01/08 01:24:22;;;;;;;2.25;2.10;;;;;;;1.91;80.46;97756.25;4112268;28;20203;-56
2022/01/08 01:26:28;;;;;;;3.03;2.10;;;;;;;1.96;80.22;97755.59;4097364;28;20693;-55
2022/01/08 01:28:40;;;;;;;2.40;2.20;;;;;;;1.84;79.35;97749.22;4128296;28;20233;-55
2022/01/08 01:42:38;;;;;;;2.35;2.20;;;;;;;1.57;80.25;97737.72;4111539;28;20231;-54
2022/01/08 01:47:03;;;;;;;2.22;2.08;;;;;;;1.59;80.62;97735.63;4129240;28;20291;-55
2022/01/08 01:49:05;;;;;;;2.40;2.20;;;;;;;1.60;80.06;97737.28;4128245;28;20754;-54
2022/01/08 01:51:07;;;;;;;2.03;1.92;;;;;;;1.62;80.04;97734.38;4126542;28;20330;-54
2022/01/08 01:53:08;;;;;;;2.00;1.90;;;;;;;1.63;80.37;97736.03;4113896;28;20752;-55
2022/01/08 01:55:10;;;;;;;1.83;1.73;;;;;;;1.58;80.43;97736.69;4113572;28;20206;-55
2022/01/08 01:57:13;;;;;;;2.08;1.95;;;;;;;1.68;80.26;97738.94;4095611;28;20282;-56
2022/01/08 01:59:15;;;;;;;1.73;1.63;;;;;;;1.68;80.23;97745.13;4125278;28;20603;-55
2022/01/08 02:01:16;;;;;;;2.40;2.30;;;;;;;1.75;79.98;97737.03;4109378;28;20700;-55
2022/01/08 02:03:18;;;;;;;2.38;2.28;;;;;;;1.69;80.07;97738.69;4092799;28;20306;-54
2022/01/08 02:05:20;;;;;;;2.47;2.28;;;;;;;1.69;80.77;97736.00;4110847;28;20211;-54
2022/01/08 02:07:23;;;;;;;1.67;1.58;;;;;;;1.84;80.22;97733.88;4112195;28;20203;-55
2022/01/08 02:09:28;;;;;;;1.92;1.83;;;;;;;1.83;80.16;97737.63;4098193;28;20382;-54
2022/01/08 02:11:30;;;;;;;2.25;1.50;;;;;;;1.75;79.69;97734.34;4110909;28;20780;-53
2022/01/08 02:13:32;;;;;;;2.05;1.95;;;;;;;1.98;80.14;97740.03;4112114;28;20243;-53
2022/01/08 02:15:35;;;;;;;1.50;1.40;;;;;;;1.90;79.78;97745.69;4112183;28;20706;-55
2022/01/08 02:17:37;;;;;;;1.90;1.70;;;;;;;1.83;79.99;97743.03;4126178;28;21068;-55
2022/01/08 02:19:40;;;;;;;1.42;1.33;;;;;;;1.81;80.28;97737.00;4128970;28;20233;-55
2022/01/08 02:21:50;;;;;;;1.52;1.42;;;;;;;1.89;80.23;97741.31;4111820;28;20270;-54
2022/01/08 02:23:52;;;;;;;2.72;1.80;;;;;;;1.88;80.20;97745.88;4112250;28;20591;-54
2022/01/08 02:26:04;;;;;;;1.88;1.77;;;;;;;1.91;79.75;97740.06;4110524;28;20234;-54
2022/01/08 02:28:07;;;;;;;1.58;1.48;;;;;;;1.85;80.33;97745.47;4110160;28;20202;-54
2022/01/08 02:30:09;;;;;;;1.27;1.17;;;;;;;1.82;79.89;97741.34;4112734;28;20598;-54
2022/01/08 02:32:14;;;;;;;1.73;1.63;;;;;;;1.76;79.89;97744.91;4112882;28;20301;-54
2022/01/08 02:34:16;;;;;;;4.88;1.52;;;;;;;1.77;79.87;97749.25;4113416;28;20771;-54
2022/01/08 02:36:18;;;;;;;1.40;1.30;;;;;;;1.90;80.44;97751.91;4113255;28;20203;-55
2022/01/08 02:38:20;;;;;;;1.60;1.50;;;;;;;1.92;79.80;97746.28;4109783;28;20249;-55
2022/01/08 02:40:23;;;;;;;1.63;1.55;;;;;;;1.82;79.67;97754.81;4110117;28;20221;-54
2022/01/08 02:42:29;;;;;;;2.17;1.98;;;;;;;1.77;79.57;97760.06;4111742;28;20711;-54
2022/01/08 02:44:31;;;;;;;2.38;2.28;;;;;;;1.85;79.49;97773.28;4113185;28;20233;-53
2022/01/08 02:46:32;;;;;;;2.30;2.20;;;;;;;1.81;79.13;97777.44;4096194;28;20210;-54
2022/01/08 02:48:34;;;;;;;1.95;1.85;;;;;;;1.74;79.35;97775.84;4112969;28;20249;-53
2022/01/08 02:50:36;;;;;;;2.13;1.77;;;;;;;1.76;79.64;97773.75;4126468;28;20217;-54
2022/01/08 02:52:42;;;;;;;2.00;1.90;;;;;;;1.61;79.80;97770.47;4112898;28;20207;-54
2022/01/08 02:54:43;;;;;;;1.73;1.63;;;;;;;1.58;80.12;97771.72;4096539;28;20210;-53
2022/01/08 02:56:47;;;;;;;1.17;1.17;;;;;;;1.65;80.36;97763.59;4112648;28;20209;-54
2022/01/08 02:58:49;;;;;;;1.60;1.60;;;;;;;1.77;79.78;97770.84;4110610;28;20265;-54
2022/01/08 03:00:50;;;;;;;1.83;1.73;;;;;;;1.76;79.94;97777.28;4096400;28;20207;-53
2022/01/08 03:02:52;;;;;;;1.50;1.40;;;;;;;1.70;79.50;97778.13;4096682;28;20764;-55
2022/01/08 03:04:54;;;;;;;2.05;1.65;;;;;;;1.71;80.21;97770.84;4112534;28;20222;-54
2022/01/08 03:06:56;;;;;;;1.52;1.42;;;;;;;1.71;79.84;97782.47;4097572;28;20242;-54
2022/01/08 03:08:58;;;;;;;1.67;1.58;;;;;;;1.70;79.79;97790.75;4095070;28;20231;-54
2022/01/08 03:11:00;;;;;;;2.20;2.10;;;;;;;1.69;79.77;97800.72;4094988;28;20203;-54
2022/01/08 03:13:04;;;;;;;2.65;2.50;;;;;;;1.77;79.70;97805.91;4096405;28;20648;-53
2022/01/08 03:15:10;;;;;;;3.85;3.65;;;;;;;1.75;79.47;97799.88;4112399;28;20198;-54
2022/01/08 03:17:15;;;;;;;2.53;2.42;;;;;;;1.77;78.98;97797.81;4099299;28;20226;-54
2022/01/08 03:19:17;;;;;;;2.67;2.17;;;;;;;1.71;79.07;97800.50;4098623;28;20262;-54
2022/01/08 03:21:21;;;;;;;2.35;2.22;;;;;;;1.65;79.17;97810.28;4094546;28;20212;-53
2022/01/08 03:23:24;;;;;;;3.10;2.90;;;;;;;1.71;79.59;97819.38;4095255;28;20211;-54
2022/01/08 03:25:26;;;;;;;1.58;1.55;;;;;;;1.67;79.26;97828.94;4112460;28;20245;-54
2022/01/08 03:27:27;;;;;;;2.40;2.20;;;;;;;1.63;79.44;97833.94;4112898;28;20201;-54
2022/01/08 03:29:29;;;;;;;1.90;1.80;;;;;;;1.61;79.59;97846.78;4111406;28;20237;-53
2022/01/08 03:31:31;;;;;;;1.70;1.60;;;;;;;1.63;78.98;97833.94;4111524;28;20210;-54
2022/01/08 03:33:33;;;;;;;1.63;1.52;;;;;;;1.68;78.98;97841.38;4097726;28;20207;-54
2022/01/08 03:35:35;;;;;;;0.90;0.90;;;;;;;1.66;78.85;97844.28;4110999;28;20210;-56
2022/01/08 03:37:36;;;;;;;1.20;1.20;;;;;;;1.61;79.18;97843.25;4112010;28;20238;-54
2022/01/08 03:39:38;;;;;;;1.17;1.13;;;;;;;1.52;79.79;97853.44;4112729;28;20266;-55
2022/01/08 03:41:42;;;;;;;1.15;1.10;;;;;;;1.56;79.18;97857.38;4113539;28;20221;-56
2022/01/08 03:43:44;;;;;;;1.33;1.33;;;;;;;1.65;79.38;97864.19;4111378;28;20211;-55
2022/01/08 03:45:46;;;;;;;1.10;1.10;;;;;;;1.58;79.37;97873.31;4095996;28;20207;-55
2022/01/08 03:49:49;;;;;;;1.08;1.08;;;;;;;1.57;79.24;97899.47;4112152;28;20232;-54
2022/01/08 03:51:54;;;;;;;0.95;0.95;;;;;;;1.61;79.31;97906.06;4095550;28;20322;-55
2022/01/08 03:53:57;;;;;;;0.80;0.80;;;;;;;1.76;78.82;97912.09;4109258;28;20203;-54
2022/01/08 03:55:59;;;;;;;0.88;0.88;;;;;;;1.66;79.37;97914.38;4111608;28;20207;-55
2022/01/08 03:58:00;;;;;;;0.90;0.90;;;;;;;1.70;78.84;97925.56;4094991;28;20231;-54
2022/01/08 04:00:04;;;;;;;0.90;0.90;;;;;;;1.67;78.91;97932.22;4096798;28;20222;-55
2022/01/08 04:02:06;;;;;;;1.00;1.00;;;;;;;1.67;79.28;97937.59;4112480;28;20217;-54
2022/01/08 04:04:08;;;;;;;1.42;1.10;;;;;;;1.68;78.57;97947.34;4096966;28;20215;-54
2022/01/08 04:06:09;;;;;;;1.23;1.23;;;;;;;1.67;79.08;97947.56;4097667;28;20247;-54
2022/01/08 04:08:11;;;;;;;1.00;1.00;;;;;;;1.68;78.68;97954.63;4098985;28;20708;-54
2022/01/08 04:10:13;;;;;;;1.10;1.10;;;;;;;1.71;78.41;97964.97;4113190;28;20301;-54
2022/01/08 04:12:20;;;;;;;1.00;1.00;;;;;;;1.70;78.39;97969.56;4099716;28;20211;-54
2022/01/08 04:14:22;;;;;;;1.23;1.20;;;;;;;1.71;78.54;97973.06;4098266;28;20572;-53
2022/01/08 04:16:30;;;;;;;1.10;1.10;;;;;;;1.64;78.23;97981.16;4097878;28;20243;-54
2022/01/08 04:18:31;;;;;;;1.15;1.13;;;;;;;1.69;78.82;97981.34;4113933;28;20218;-54
2022/01/08 04:20:46;;;;;;;0.80;0.80;;;;;;;1.70;78.27;97991.13;4114490;28;20230;-55
2022/01/08 04:22:50;;;;;;;0.90;0.90;;;;;;;1.74;78.55;98003.13;4113625;28;20210;-54
2022/01/08 04:24:52;;;;;;;1.33;1.33;;;;;;;1.74;78.02;97999.63;4096299;28;20207;-54
2022/01/08 04:26:53;;;;;;;0.88;0.88;;;;;;;1.70;77.75;98009.16;4113920;28;20230;-54
2022/01/08 04:28:55;;;;;;;1.02;1.02;;;;;;;1.70;78.04;98010.00;4097625;28;20223;-54
2022/01/08 04:30:57;;;;;;;1.20;1.20;;;;;;;1.73;78.19;98012.25;4114731;28;20793;-53
2022/01/08 04:32:59;;;;;;;1.88;1.15;;;;;;;1.67;78.31;98029.25;4097554;28;20262;-53
2022/01/08 04:35:01;;;;;;;1.25;1.15;;;;;;;1.77;78.46;98035.09;4113214;28;20665;-54
2022/01/08 04:37:03;;;;;;;1.77;1.23;;;;;;;1.73;78.09;98055.41;4100409;28;20741;-54
2022/01/08 04:39:05;;;;;;;1.30;1.20;;;;;;;1.61;78.19;98053.53;4081747;29;20873;-53
2022/01/08 04:41:07;;;;;;;1.42;1.30;;;;;;;1.53;78.20;98065.34;4097831;28;20254;-54
2022/01/08 04:43:08;;;;;;;1.60;1.30;;;;;;;1.58;78.38;98073.66;4098500;28;20211;-54
2022/01/08 04:45:11;;;;;;;1.55;1.10;;;;;;;1.61;78.12;98084.00;4114013;28;20540;-54
2022/01/08 04:47:12;;;;;;;2.28;1.00;;;;;;;1.62;78.00;98091.06;4084220;28;20239;-54
2022/01/08 04:49:14;;;;;;;1.50;1.05;;;;;;;1.60;78.09;98093.13;4098340;28;20223;-54
2022/01/08 04:51:16;;;;;;;3.10;1.00;;;;;;;1.58;78.42;98100.59;4113876;28;20247;-53
2022/01/08 04:53:17;;;;;;;1.10;1.10;;;;;;;1.54;78.16;98099.34;4113493;28;20230;-54
2022/01/08 04:55:19;;;;;;;1.30;1.15;;;;;;;1.60;78.44;98109.31;4112087;28;20211;-55
2022/01/08 04:57:21;;;;;;;1.58;1.48;;;;;;;1.59;78.12;98115.75;4096752;28;20207;-54
2022/01/08 04:59:23;;;;;;;1.27;1.17;;;;;;;1.60;78.35;98119.28;4111962;28;20727;-53
2022/01/08 05:01:25;;;;;;;1.23;1.13;;;;;;;1.71;78.18;98119.50;4112012;28;20297;-53
2022/01/08 05:03:26;;;;;;;1.63;1.40;;;;;;;1.58;78.85;98122.16;4114699;28;20202;-54
2022/01/08 05:05:28;;;;;;;2.95;1.20;;;;;;;1.66;78.93;98130.06;4097920;28;20218;-54
2022/01/08 05:07:30;;;;;;;1.88;1.45;;;;;;;1.57;78.41;98128.59;4096149;28;20231;-54
2022/01/08 05:09:31;;;;;;;1.52;1.42;;;;;;;1.60;78.86;98136.25;4115245;28;20316;-53
2022/01/08 05:11:33;;;;;;;1.02;1.02;;;;;;;1.62;78.94;98136.06;4112998;28;20206;-54
2022/01/08 05:13:35;;;;;;;1.42;1.33;;;;;;;1.62;78.96;98146.84;4094253;28;20228;-54
2022/01/08 05:15:37;;;;;;;1.00;1.00;;;;;;;1.59;78.69;98153.47;4099639;28;20211;-54
2022/01/08 05:17:39;;;;;;;4.75;1.33;;;;;;;1.71;78.71;98142.94;4097771;28;20211;-55
2022/01/08 05:19:46;;;;;;;1.50;1.40;;;;;;;1.63;78.96;98154.75;4095109;28;20394;-55
2022/01/08 05:21:54;;;;;;;1.15;1.10;;;;;;;1.63;78.79;98157.44;4112145;28;20207;-54
2022/01/08 05:23:57;;;;;;;1.23;1.15;;;;;;;1.60;79.17;98157.03;4113780;28;20289;-53
2022/01/08 05:25:59;;;;;;;1.63;1.17;;;;;;;1.59;78.75;98161.56;4097790;28;20231;-54
2022/01/08 05:28:04;;;;;;;1.25;1.20;;;;;;;1.62;78.93;98171.13;4113149;28;20243;-54
2022/01/08 05:30:06;;;;;;;1.42;1.25;;;;;;;1.70;78.90;98163.69;4098215;28;20270;-54
2022/01/08 05:32:08;;;;;;;2.25;1.23;;;;;;;1.62;78.98;98166.53;4097663;28;20709;-55
2022/01/08 05:34:11;;;;;;;3.45;1.67;;;;;;;1.60;78.44;98179.41;4112810;28;20774;-54
2022/01/08 05:36:13;;;;;;;3.45;1.60;;;;;;;1.64;78.39;98177.97;4111725;28;20213;-53
2022/01/08 05:38:15;;;;;;;1.75;1.35;;;;;;;1.66;78.67;98188.53;4095932;28;20668;-54
2022/01/08 05:40:16;;;;;;;2.92;2.25;;;;;;;1.63;78.70;98195.19;4113765;28;20280;-53
2022/01/08 05:42:19;;;;;;;1.80;1.70;;;;;;;1.66;78.94;98193.94;4110868;28;20746;-53
2022/01/08 05:44:20;;;;;;;2.03;1.88;;;;;;;1.58;78.91;98194.97;4095212;28;20605;-54
2022/01/08 05:46:22;;;;;;;1.58;1.52;;;;;;;1.60;78.13;98198.28;4097804;28;20207;-55
2022/01/08 05:48:25;;;;;;;3.30;2.13;;;;;;;1.60;78.53;98205.56;4097495;28;20234;-53
2022/01/08 05:50:27;;;;;;;2.20;2.10;;;;;;;1.64;79.00;98213.03;4096688;28;20228;-53
2022/01/08 05:52:29;;;;;;;1.95;1.85;;;;;;;1.69;78.76;98218.63;4112696;28;20237;-54
2022/01/08 05:54:30;;;;;;;2.25;1.80;;;;;;;1.63;79.08;98224.84;4113251;28;20223;-54
2022/01/08 05:56:32;;;;;;;1.80;1.70;;;;;;;1.69;78.54;98218.63;4097473;28;20665;-54
2022/01/08 05:58:34;;;;;;;4.60;1.60;;;;;;;1.62;79.25;98225.03;4098875;28;20220;-53
2022/01/08 06:00:36;;;;;;;15.75;2.33;;;;;;;1.57;78.94;98228.34;4082650;29;20208;-53
2022/01/08 06:02:38;;;;;;;6.72;1.90;;;;;;;1.68;78.52;98219.66;4098301;28;20204;-53
2022/01/08 06:04:40;;;;;;;2.45;2.10;;;;;;;1.73;79.15;98230.69;4113533;28;20210;-53
2022/01/08 06:06:43;;;;;;;3.00;2.15;;;;;;;1.68;78.67;98235.84;4097977;28;20211;-53
2022/01/08 06:08:44;;;;;;;2.03;1.92;;;;;;;1.73;78.89;98237.97;4111886;28;20223;-53
2022/01/08 06:10:47;;;;;;;3.08;2.88;;;;;;;1.69;78.42;98250.97;4112110;28;20210;-54
2022/01/08 06:12:52;;;;;;;2.92;2.67;;;;;;;1.67;78.56;98261.16;4113050;28;20198;-54
2022/01/08 06:14:54;;;;;;;2.95;2.75;;;;;;;1.58;78.89;98256.97;4095829;28;20207;-54
2022/01/08 06:16:55;;;;;;;2.30;2.10;;;;;;;1.68;78.30;98257.41;4111687;28;20214;-53
2022/01/08 06:18:57;;;;;;;2.17;2.05;;;;;;;1.57;78.52;98259.84;4112091;28;20234;-53
2022/01/08 06:20:59;;;;;;;3.85;3.00;;;;;;;1.57;79.29;98260.69;4109363;28;20234;-54
2022/01/08 06:23:01;;;;;;;7.75;5.85;;;;;;;1.54;78.79;98266.47;4100453;28;20218;-53
2022/01/08 06:25:03;;;;;;;6.07;5.40;;;;;;;1.51;79.06;98269.56;4097526;28;20243;-54
2022/01/08 06:27:05;;;;;;;8.70;8.00;;;;;;;1.69;78.96;98277.13;4113871;28;20203;-54
2022/01/08 06:29:09;;;;;;;8.15;7.35;;;;;;;1.56;79.14;98280.59;4113269;28;20226;-53
2022/01/08 06:31:11;;;;;;;7.82;7.03;;;;;;;1.53;78.88;98278.28;4114012;28;20215;-55
2022/01/08 06:33:14;;;;;;;6.43;5.80;;;;;;;1.52;78.52;98279.31;4110588;28;20311;-54
2022/01/08 06:35:16;;;;;;;6.03;5.40;;;;;;;1.57;78.75;98270.63;4110169;28;20206;-53
2022/01/08 06:37:18;;;;;;;5.10;4.70;;;;;;;1.60;78.62;98278.34;4094628;28;20302;-54
2022/01/08 06:39:20;;;;;;;4.45;4.15;;;;;;;1.49;78.73;98285.09;4080083;29;20745;-53
2022/01/08 06:41:21;;;;;;;4.43;3.67;;;;;;;1.49;79.03;98278.88;4096465;28;20239;-55
2022/01/08 06:43:23;;;;;;;3.45;2.20;;;;;;;1.54;78.15;98285.34;4098810;28;20207;-54
2022/01/08 06:45:25;;;;;;;4.30;2.40;;;;;;;1.52;78.08;98287.41;4101329;28;20215;-53
2022/01/08 06:47:27;;;;;;;5.18;3.40;;;;;;;1.55;78.46;98289.69;4098325;28;20208;-54
2022/01/08 06:49:29;;;;;;;3.25;2.92;;;;;;;1.58;77.90;98300.09;4113374;28;20238;-53
2022/01/08 06:51:31;;;;;;;4.10;3.28;;;;;;;1.51;77.83;98309.16;4097015;28;20209;-53
2022/01/08 06:53:33;;;;;;;2.70;1.95;;;;;;;1.47;78.00;98307.91;4117169;28;20199;-53
2022/01/08 06:55:35;;;;;;;2.67;2.28;;;;;;;1.44;77.40;98314.53;4113588;28;20225;-54
2022/01/08 06:57:37;;;;;;;3.10;2.08;;;;;;;1.32;78.00;98316.09;4097845;28;20223;-53
2022/01/08 06:59:38;;;;;;;2.30;2.10;;;;;;;1.31;78.15;98329.75;4100544;28;20239;-55
2022/01/08 07:01:40;;;;;;;2.35;1.77;;;;;;;1.22;78.02;98336.34;4098754;28;20207;-53
2022/01/08 07:03:42;;;;;;;1.88;1.30;;;;;;;1.21;78.50;98340.88;4112576;28;20215;-53
2022/01/08 07:05:43;;;;;;;2.03;1.92;;;;;;;1.26;78.35;98342.97;4114147;28;20318;-54
2022/01/08 07:07:45;;;;;;;2.58;1.70;;;;;;;1.22;78.07;98347.94;4099482;28;20215;-53
2022/01/08 07:09:47;;;;;;;2.25;2.15;;;;;;;1.25;78.30;98347.56;4100304;28;20223;-54
2022/01/08 07:11:48;;;;;;;2.87;1.93;;;;;;;1.19;78.56;98364.50;4109062;28;20235;-53
2022/01/08 07:13:50;;;;;;;4.07;2.03;;;;;;;1.15;78.39;98365.91;4112541;28;20279;-53
2022/01/08 07:15:52;;;;;;;3.15;2.03;;;;;;;1.14;78.25;98372.34;4099316;28;20243;-53
2022/01/08 07:17:54;;;;;;;5.97;3.90;;;;;;;1.14;78.51;98377.72;4113587;28;20206;-54
2022/01/08 07:19:55;;;;;;;2.78;2.25;;;;;;;1.13;78.19;98381.44;4101181;28;20235;-55
2022/01/08 07:21:59;;;;;;;5.50;2.30;;;;;;;1.12;78.48;98385.16;4096826;28;20493;-55
2022/01/08 07:24:01;;;;;;;27.30;2.65;;;;;;;1.05;78.07;98392.38;4112195;28;20214;-55
2022/01/08 07:26:03;;;;;;;19.40;2.70;;;;;;;1.02;78.41;98389.22;4102543;28;20250;-54
2022/01/08 07:28:05;;;;;;;4.32;2.65;;;;;;;1.13;78.29;98396.75;4099341;28;20207;-54
2022/01/08 07:30:08;;;;;;;5.00;2.25;;;;;;;1.16;77.87;98385.63;4111626;28;20222;-54
2022/01/08 07:32:10;;;;;;;4.13;2.15;;;;;;;1.04;78.15;98398.78;4081355;29;20247;-53
2022/01/08 07:34:12;;;;;;;3.00;2.70;;;;;;;1.05;78.43;98407.69;4112088;28;20672;-54
2022/01/08 07:36:13;;;;;;;2.60;2.33;;;;;;;1.06;77.98;98396.72;4111990;28;20207;-53
2022/01/08 07:38:19;;;;;;;4.17;2.73;;;;;;;1.03;78.13;98397.13;4115838;28;20208;-54
2022/01/08 07:40:21;;;;;;;4.50;2.60;;;;;;;0.98;77.71;98394.16;4108179;28;20798;-54
2022/01/08 07:42:23;;;;;;;4.63;2.73;;;;;;;1.04;77.55;98400.63;4110881;28;20222;-53
2022/01/08 07:44:25;;;;;;;3.37;3.07;;;;;;;0.98;77.58;98404.94;4094641;28;20298;-54
2022/01/08 07:46:26;;;;;;;3.53;3.17;;;;;;;0.99;77.93;98403.06;4094635;28;20211;-53
2022/01/08 07:48:28;;;;;;;6.13;3.40;;;;;;;1.04;77.78;98398.78;4112868;28;20234;-53
2022/01/08 07:50:30;;;;;;;3.80;2.95;;;;;;;1.01;77.50;98409.94;4098747;28;20305;-54
2022/01/08 07:52:32;;;;;;;3.40;3.03;;;;;;;1.06;77.34;98406.66;4099011;28;20313;-54
2022/01/08 07:54:34;;;;;;;3.17;2.93;;;;;;;1.03;77.55;98409.75;4097082;28;20211;-54
2022/01/08 07:56:36;;;;;;;6.27;3.47;;;;;;;0.97;78.04;98413.19;4114796;28;20677;-55
2022/01/08 07:58:38;;;;;;;5.77;3.37;;;;;;;1.06;77.82;98412.88;4083605;28;20263;-54
2022/01/08 08:00:39;;;;;;;8.05;3.45;;;;;;;1.08;78.29;98410.00;4115192;28;20206;-54
2022/01/08 08:02:41;;;;;;;3.50;2.93;;;;;;;1.03;77.96;98424.06;4094908;28;20212;-54
2022/01/08 08:04:43;;;;;;;4.33;3.17;;;;;;;1.09;77.76;98425.94;4101170;28;20252;-54
2022/01/08 08:06:47;;;;;;;6.40;3.10;;;;;;;1.03;77.85;98418.66;4114804;28;20203;-55
2022/01/08 08:08:51;;;;;;;4.30;3.23;;;;;;;1.11;77.95;98431.16;4095712;28;20788;-54
2022/01/08 08:10:53;;;;;;;10.30;3.77;;;;;;;1.06;77.48;98428.19;4112098;28;20328;-56
2022/01/08 08:12:55;;;;;;;7.53;3.43;;;;;;;1.03;78.26;98428.59;4099059;28;20682;-54
2022/01/08 08:14:57;;;;;;;4.70;3.57;;;;;;;1.01;78.10;98431.47;4095030;28;20215;-54
2022/01/08 08:16:59;;;;;;;4.73;3.77;;;;;;;0.95;78.08;98434.94;4099180;28;20235;-55
2022/01/08 08:19:01;;;;;;;10.10;3.73;;;;;;;0.97;78.39;98440.97;4112021;28;20695;-54
2022/01/08 08:21:02;;;;;;;5.80;3.50;;;;;;;0.95;78.22;98443.00;4095960;28;20661;-56
2022/01/08 08:23:04;;;;;;;5.80;4.40;;;;;;;0.94;78.29;98433.25;4094609;28;20246;-52
2022/01/08 08:25:08;;;;;;;4.87;3.50;;;;;;;1.00;78.36;98435.19;4100374;28;20652;-55
2022/01/08 08:27:09;;;;;;;6.00;4.93;;;;;;;1.00;78.03;98435.19;4092140;28;20254;-55
2022/01/08 08:29:11;;;;;;;6.43;4.23;;;;;;;1.02;78.22;98433.13;4113795;28;20226;-55
2022/01/08 08:31:13;;;;;;;5.23;4.73;;;;;;;1.12;77.89;98439.06;4111305;28;20768;-54
2022/01/08 08:33:14;;;;;;;6.30;4.37;;;;;;;1.75;77.20;98430.03;4096166;28;20555;-56
2022/01/08 08:35:17;;;;;;;6.22;5.72;;;;;;;2.23;75.39;98435.34;4091025;28;20208;-54
2022/01/08 08:37:19;;;;;;;5.88;4.88;;;;;;;2.41;74.91;98438.31;4112028;28;20244;-55
2022/01/08 08:39:20;;;;;;;5.05;4.47;;;;;;;2.53;73.85;98450.22;4099287;28;20219;-55
2022/01/08 08:41:22;;;;;;;4.70;4.25;;;;;;;2.81;72.14;98440.13;4110741;28;20250;-56
2022/01/08 08:43:24;;;;;;;4.65;3.75;;;;;;;3.10;72.46;98450.63;4110172;28;20681;-54
2022/01/08 08:45:25;;;;;;;4.88;4.03;;;;;;;2.53;73.03;98447.50;4097210;28;20670;-55
2022/01/08 08:47:27;;;;;;;4.25;3.85;;;;;;;2.15;73.57;98438.16;4097453;28;20680;-56
2022/01/08 08:49:29;;;;;;;4.63;4.22;;;;;;;1.95;75.00;98450.72;4115578;28;20234;-54
2022/01/08 08:51:31;;;;;;;5.28;4.82;;;;;;;2.05;75.40;98447.66;4100932;28;20634;-55
2022/01/08 08:53:34;;;;;;;5.93;4.45;;;;;;;1.91;75.10;98444.06;4099114;28;20580;-55
2022/01/08 08:55:36;;;;;;;8.23;4.78;;;;;;;1.70;75.93;98454.91;4081586;29;20729;-53
2022/01/08 08:57:38;;;;;;;5.50;4.80;;;;;;;1.82;76.17;98458.72;4110939;28;20697;-54
2022/01/08 08:59:40;;;;;;;7.70;6.07;;;;;;;1.61;76.66;98445.28;4100981;28;20361;-55
2022/01/08 09:01:41;;;;;;;5.63;4.97;;;;;;;1.66;76.38;98458.16;4102421;28;20207;-54
2022/01/08 09:03:43;;;;;;;8.70;5.40;;;;;;;1.56;76.33;98469.31;4116966;28;20215;-55
2022/01/08 09:05:45;;;;;;;11.10;5.17;;;;;;;1.65;76.64;98462.75;4118267;28;20206;-53
2022/01/08 09:07:47;;;;;;;4.90;4.03;;;;;;;1.58;76.33;98461.88;4101390;28;20687;-54
2022/01/08 09:09:48;;;;;;;9.45;5.07;;;;;;;1.69;76.43;98464.00;4112206;28;20226;-54
2022/01/08 09:11:50;;;;;;;7.18;6.47;;;;;;;1.63;76.14;98470.22;4100761;28;20682;-53
2022/01/08 09:13:52;;;;;;;5.28;4.85;;;;;;;1.62;75.98;98479.28;4093024;28;20682;-53
2022/01/08 09:15:54;;;;;;;10.80;4.53;;;;;;;1.65;76.26;98467.28;4116423;28;20225;-54
2022/01/08 09:17:57;;;;;;;5.38;4.72;;;;;;;1.86;75.76;98469.94;4107790;28;20272;-55
2022/01/08 09:19:59;;;;;;;5.35;3.30;;;;;;;1.85;75.36;98474.53;4092593;28;20273;-55
2022/01/08 09:22:02;;;;;;;5.97;4.40;;;;;;;1.90;75.76;98471.22;4096022;28;20230;-53
2022/01/08 09:24:04;;;;;;;5.15;4.75;;;;;;;2.07;75.49;98468.03;4094245;28;20917;-55
2022/01/08 09:26:06;;;;;;;7.75;4.18;;;;;;;2.01;75.08;98468.81;4107704;28;20621;-56
2022/01/08 09:28:08;;;;;;;6.78;4.18;;;;;;;2.01;74.95;98473.41;4110427;28;20237;-54
2022/01/08 09:30:10;;;;;;;4.30;3.90;;;;;;;1.99;75.00;98475.44;4110483;28;20234;-55
2022/01/08 09:32:11;;;;;;;7.05;4.13;;;;;;;2.03;75.50;98466.78;4109529;28;20203;-56
2022/01/08 09:34:15;;;;;;;10.23;3.80;;;;;;;2.04;75.00;98473.81;4093193;28;20208;-55
2022/01/08 09:36:17;;;;;;;4.53;4.15;;;;;;;2.01;74.94;98468.81;4093837;28;20701;-55
2022/01/08 09:38:19;;;;;;;7.15;5.53;;;;;;;2.03;75.75;98465.91;4087737;28;20212;-55
2022/01/08 09:40:24;;;;;;;8.13;4.22;;;;;;;1.97;75.15;98462.16;4097008;28;20219;-54
2022/01/08 09:42:26;;;;;;;7.22;6.25;;;;;;;1.91;75.37;98462.94;4089545;28;20223;-55
2022/01/08 09:44:28;;;;;;;5.75;5.25;;;;;;;1.92;75.89;98461.06;4094486;28;20211;-54
2022/01/08 09:46:29;;;;;;;5.00;4.13;;;;;;;1.82;75.74;98466.81;4110434;28;20661;-56
2022/01/08 09:48:31;;;;;;;7.90;5.23;;;;;;;1.84;76.23;98469.31;4108926;28;20693;-55
2022/01/08 09:50:33;;;;;;;5.72;5.13;;;;;;;1.82;76.28;98474.06;4113237;28;20209;-53
2022/01/08 09:52:35;;;;;;;10.35;4.38;;;;;;;1.85;75.91;98466.44;4096236;28;20211;-54
2022/01/08 09:54:39;;;;;;;12.85;4.90;;;;;;;1.93;75.74;98471.66;4110919;28;20588;-54
2022/01/08 09:56:41;;;;;;;10.60;5.20;;;;;;;1.90;75.99;98466.69;4090319;28;20582;-55
2022/01/08 09:58:43;;;;;;;6.65;3.97;;;;;;;1.89;75.78;98475.78;4110001;28;20717;-54